createdAt,value
2024-01-11T00:00:25.168Z,108.8
2024-01-11T00:01:39.464Z,106
2024-01-11T00:02:53.759Z,108.6
2024-01-11T00:04:08.054Z,111
2024-01-11T00:05:22.350Z,103.7
2024-01-11T00:06:36.645Z,109.3
2024-01-11T00:07:50.940Z,112.4
2024-01-11T00:09:05.235Z,102.3
2024-01-11T00:10:19.530Z,108.8
2024-01-11T00:11:32.842Z,104.2
2024-01-11T00:12:47.137Z,109.1
2024-01-11T00:15:15.727Z,113.2
2024-01-11T00:16:30.023Z,106.6
2024-01-11T00:17:44.318Z,111.9
2024-01-11T00:18:58.613Z,107.2
2024-01-11T00:20:12.908Z,107.8
2024-01-11T00:21:27.204Z,108.2
2024-01-11T00:22:41.499Z,105.5
2024-01-11T00:23:55.794Z,108.3
2024-01-11T00:25:10.090Z,100.7
2024-01-11T00:26:24.385Z,101
2024-01-11T00:27:37.696Z,103
2024-01-11T00:28:51.992Z,110
2024-01-11T00:30:06.287Z,103.1
2024-01-11T00:31:20.582Z,111
2024-01-11T00:32:34.877Z,104.9
2024-01-11T00:33:49.173Z,106.8
2024-01-11T00:35:03.468Z,105.4
2024-01-11T00:36:17.763Z,102.5
2024-01-11T00:37:32.059Z,106.8
2024-01-11T00:38:46.354Z,100.4
2024-01-11T00:40:00.650Z,106.3
2024-01-11T00:41:14.945Z,109.5
2024-01-11T00:42:29.240Z,108
2024-01-11T00:43:42.552Z,100.2
2024-01-11T00:44:56.847Z,106.7
2024-01-11T00:46:11.142Z,104.6
2024-01-11T00:47:25.437Z,99.4
2024-01-11T00:48:39.733Z,99.2
2024-01-11T00:49:54.028Z,99.1
2024-01-11T00:51:08.324Z,102
2024-01-11T00:52:22.619Z,104
2024-01-11T00:53:36.914Z,101.8
2024-01-11T00:54:51.210Z,97.6
2024-01-11T00:56:05.505Z,103.2
2024-01-11T00:57:19.800Z,104.3
2024-01-11T00:58:34.074Z,102.8
2024-01-11T00:59:48.391Z,107.7
2024-01-11T01:01:01.702Z,105.9
2024-01-11T01:02:15.998Z,105.7
2024-01-11T01:03:30.293Z,108.7
2024-01-11T01:04:44.588Z,98.6
2024-01-11T01:05:58.859Z,97.9
2024-01-11T01:07:13.179Z,104.8
2024-01-11T01:09:41.770Z,105.7
2024-01-11T01:10:56.065Z,104.9
2024-01-11T01:12:10.360Z,99.4
2024-01-11T01:13:24.655Z,104.2
2024-01-11T01:14:38.951Z,109.2
2024-01-11T01:15:53.246Z,107.6
2024-01-11T01:17:06.557Z,112
2024-01-11T01:18:20.852Z,100.6
2024-01-11T01:19:35.148Z,112.2
2024-01-11T01:20:49.443Z,106.9
2024-01-11T01:22:03.716Z,108.9
2024-01-11T01:23:18.034Z,106.6
2024-01-11T01:24:32.329Z,107.4
2024-01-11T01:25:46.625Z,102.6
2024-01-11T01:27:00.920Z,100
2024-01-11T01:28:15.215Z,107.6
2024-01-11T01:29:29.511Z,104.5
2024-01-11T01:30:43.806Z,112.2
2024-01-11T01:31:58.101Z,102.7
2024-01-11T01:33:11.413Z,101.4
2024-01-11T01:34:25.708Z,98.4
2024-01-11T01:35:39.982Z,108.5
2024-01-11T01:36:54.299Z,106.2
2024-01-11T01:38:08.594Z,109.4
2024-01-11T01:39:22.889Z,107.9
2024-01-11T01:40:37.185Z,111.5
2024-01-11T01:41:51.480Z,109.5
2024-01-11T01:44:20.071Z,118.1
2024-01-11T01:45:34.366Z,120.3
2024-01-11T01:46:48.662Z,113.7
2024-01-11T01:48:02.957Z,117.7
2024-01-11T01:49:16.268Z,119.9
2024-01-11T01:50:30.564Z,117.9
2024-01-11T01:51:44.859Z,111.1
2024-01-11T01:52:59.155Z,114.6
2024-01-11T01:54:13.450Z,109.6
2024-01-11T01:55:27.745Z,111
2024-01-11T01:56:42.040Z,108.6
2024-01-11T01:57:56.336Z,109.7
2024-01-11T01:59:10.631Z,106.3
2024-01-11T02:00:24.902Z,108.6
2024-01-11T02:01:39.222Z,101.4
2024-01-11T02:02:53.517Z,106.2
2024-01-11T02:04:07.813Z,102.9
2024-01-11T02:05:21.124Z,107
2024-01-11T02:06:35.419Z,106.5
2024-01-11T02:07:49.715Z,103.4
2024-01-11T02:09:04.010Z,104.5
2024-01-11T02:10:18.305Z,101.1
2024-01-11T02:11:32.601Z,102.1
2024-01-11T02:12:46.886Z,102.1
2024-01-11T02:14:01.191Z,108.8
2024-01-11T02:15:15.487Z,110
2024-01-11T02:16:29.782Z,97.2
2024-01-11T02:17:44.077Z,103.1
2024-01-11T02:18:58.373Z,99.6
2024-01-11T02:20:12.648Z,105.7
2024-01-11T02:21:25.979Z,101.6
2024-01-11T02:22:40.252Z,103.3
2024-01-11T02:23:54.570Z,106.4
2024-01-11T02:25:08.865Z,101
2024-01-11T02:26:23.161Z,102.7
2024-01-11T02:27:37.456Z,105.2
2024-01-11T02:28:51.751Z,106.3
2024-01-11T02:30:06.047Z,93.4
2024-01-11T02:31:20.342Z,100
2024-01-11T02:32:34.637Z,96.6
2024-01-11T02:33:48.933Z,95.5
2024-01-11T02:35:03.228Z,96.4
2024-01-11T02:36:17.524Z,99.9
2024-01-11T02:37:30.835Z,97.8
2024-01-11T02:38:45.130Z,97.6
2024-01-11T02:39:59.425Z,94.7
2024-01-11T02:41:13.721Z,91.3
2024-01-11T02:42:28.016Z,92.7
2024-01-11T02:43:42.311Z,91.9
2024-01-11T02:44:56.607Z,99.6
2024-01-11T02:46:10.902Z,102.2
2024-01-11T02:47:25.197Z,98.2
2024-01-11T02:48:39.493Z,97
2024-01-11T02:49:53.788Z,94.2
2024-01-11T02:51:08.083Z,94.6
2024-01-11T02:52:22.378Z,93
2024-01-11T02:53:35.685Z,101.7
2024-01-11T02:54:49.985Z,93
2024-01-11T02:56:04.280Z,94.9
2024-01-11T02:57:18.576Z,94.3
2024-01-11T02:58:32.871Z,96.2
2024-01-11T02:59:46.187Z,99
2024-01-11T03:01:00.483Z,100.1
2024-01-11T03:02:14.778Z,94.9
2024-01-11T03:03:29.073Z,96.8
2024-01-11T03:04:43.368Z,99.6
2024-01-11T03:05:57.664Z,102.3
2024-01-11T03:07:11.959Z,101.5
2024-01-11T03:08:26.254Z,101.9
2024-01-11T03:09:40.528Z,98.8
2024-01-11T03:10:54.845Z,97.2
2024-01-11T03:12:09.140Z,93.7
2024-01-11T03:13:23.435Z,96.4
2024-01-11T03:14:37.712Z,94.5
2024-01-11T03:15:51.042Z,99.6
2024-01-11T03:17:05.337Z,91.3
2024-01-11T03:18:19.632Z,87.5
2024-01-11T03:19:33.909Z,88.5
2024-01-11T03:20:48.223Z,89.6
2024-01-11T03:22:02.518Z,94.1
2024-01-11T03:23:16.814Z,93.6
2024-01-11T03:24:31.110Z,88.6
2024-01-11T03:25:45.405Z,94
2024-01-11T03:28:13.996Z,92.6
2024-01-11T03:29:28.291Z,92.7
2024-01-11T03:30:42.586Z,91.5
2024-01-11T03:31:55.898Z,92.8
2024-01-11T03:33:10.193Z,95
2024-01-11T03:34:24.488Z,92.8
2024-01-11T03:35:38.783Z,91.8
2024-01-11T03:36:53.054Z,91.6
2024-01-11T03:38:07.374Z,98.7
2024-01-11T03:39:21.669Z,98.1
2024-01-11T03:40:35.965Z,97.4
2024-01-11T03:41:50.250Z,103.2
2024-01-11T03:43:04.555Z,95.5
2024-01-11T03:44:18.851Z,100
2024-01-11T03:45:33.146Z,96.9
2024-01-11T03:46:47.441Z,94.4
2024-01-11T03:48:00.752Z,99.5
2024-01-11T03:49:15.030Z,100.1
2024-01-11T03:50:29.343Z,93.2
2024-01-11T03:51:43.638Z,94.3
2024-01-11T03:52:57.934Z,91.7
2024-01-11T03:54:12.229Z,95.1
2024-01-11T03:55:26.524Z,96.8
2024-01-11T03:56:40.820Z,90.1
2024-01-11T03:57:55.115Z,90.7
2024-01-11T03:59:09.410Z,91.4
2024-01-11T04:00:23.705Z,90.9
2024-01-11T04:01:38.001Z,93.9
2024-01-11T04:02:52.296Z,95.4
2024-01-11T04:04:05.607Z,97.1
2024-01-11T04:05:19.903Z,93.7
2024-01-11T04:06:34.198Z,89.7
2024-01-11T04:07:48.493Z,94
2024-01-11T04:09:02.788Z,91.7
2024-01-11T04:10:17.083Z,86.2
2024-01-11T04:11:31.379Z,89.5
2024-01-11T04:12:45.674Z,92.7
2024-01-11T04:13:59.969Z,87.5
2024-01-11T04:15:14.265Z,96
2024-01-11T04:16:28.560Z,96.4
2024-01-11T04:17:42.855Z,95.5
2024-01-11T04:18:57.150Z,94.8
2024-01-11T04:20:10.462Z,96.2
2024-01-11T04:21:24.757Z,90.1
2024-01-11T04:22:39.052Z,95.8
2024-01-11T04:23:53.348Z,91.2
2024-01-11T04:25:07.643Z,98.7
2024-01-11T04:26:21.938Z,93.5
2024-01-11T04:27:36.233Z,93.9
2024-01-11T04:28:50.513Z,90.8
2024-01-11T04:30:04.824Z,96.9
2024-01-11T04:31:19.119Z,90.8
2024-01-11T04:32:33.414Z,88.9
2024-01-11T04:33:47.711Z,87.9
2024-01-11T04:35:02.006Z,91.4
2024-01-11T04:36:15.317Z,90
2024-01-11T04:37:29.612Z,87.4
2024-01-11T04:38:43.908Z,87.8
2024-01-11T04:39:58.203Z,91.5
2024-01-11T04:41:12.498Z,85.3
2024-01-11T04:42:26.794Z,90
2024-01-11T04:43:41.089Z,85
2024-01-11T04:44:55.384Z,86.1
2024-01-11T04:46:09.680Z,90.3
2024-01-11T04:47:23.975Z,88.9
2024-01-11T04:48:38.270Z,87.7
2024-01-11T04:49:52.565Z,95
2024-01-11T04:51:06.861Z,92.2
2024-01-11T04:52:20.172Z,88.2
2024-01-11T04:53:34.467Z,96.2
2024-01-11T04:54:48.762Z,94
2024-01-11T04:56:03.058Z,90.9
2024-01-11T04:57:17.353Z,98.2
2024-01-11T04:58:31.648Z,94.1
2024-01-11T04:59:45.943Z,90.7
2024-01-11T05:01:00.239Z,92
2024-01-11T05:02:14.534Z,91.6
2024-01-11T05:03:28.818Z,89.4
2024-01-11T05:04:43.124Z,95.1
2024-01-11T05:05:57.419Z,99.8
2024-01-11T05:07:11.715Z,97.8
2024-01-11T05:08:25.026Z,93.9
2024-01-11T05:09:39.321Z,100.7
2024-01-11T05:10:53.616Z,98.2
2024-01-11T05:12:07.912Z,101.3
2024-01-11T05:13:22.207Z,94.5
2024-01-11T05:14:36.502Z,93.7
2024-01-11T05:15:50.797Z,96.8
2024-01-11T05:17:05.093Z,94
2024-01-11T05:19:33.683Z,93.7
2024-01-11T05:20:47.978Z,95.7
2024-01-11T05:22:02.274Z,88.6
2024-01-11T05:23:16.558Z,94.6
2024-01-11T05:24:29.880Z,91.8
2024-01-11T05:25:44.175Z,95.6
2024-01-11T05:26:58.470Z,100.7
2024-01-11T05:28:12.766Z,100.5
2024-01-11T05:29:27.061Z,97.2
2024-01-11T05:30:41.356Z,96
2024-01-11T05:31:55.651Z,95.6
2024-01-11T05:33:09.928Z,89.3
2024-01-11T05:34:24.242Z,95.4
2024-01-11T05:35:38.537Z,96
2024-01-11T05:36:52.832Z,95.6
2024-01-11T05:38:07.128Z,102.7
2024-01-11T05:39:21.423Z,96.7
2024-01-11T05:40:34.723Z,92.6
2024-01-11T05:41:49.029Z,90.7
2024-01-11T05:43:03.299Z,93
2024-01-11T05:44:17.620Z,89.6
2024-01-11T05:45:31.915Z,83.6
2024-01-11T05:46:46.210Z,83.9
2024-01-11T05:48:00.482Z,84.9
2024-01-11T05:49:14.801Z,86.4
2024-01-11T05:50:29.096Z,86.8
2024-01-11T05:51:43.391Z,84.8
2024-01-11T05:52:57.687Z,85.5
2024-01-11T05:54:11.982Z,85.7
2024-01-11T05:55:26.277Z,87.4
2024-01-11T05:56:39.588Z,92.8
2024-01-11T05:57:53.884Z,80.8
2024-01-11T05:59:08.179Z,90.3
2024-01-11T06:00:22.475Z,88
2024-01-11T06:01:36.770Z,86.2
2024-01-11T06:02:51.040Z,90.8
2024-01-11T06:04:05.334Z,94
2024-01-11T06:05:19.655Z,93
2024-01-11T06:06:33.950Z,94.4
2024-01-11T06:07:48.245Z,88.4
2024-01-11T06:09:02.541Z,88.3
2024-01-11T06:10:16.836Z,92
2024-01-11T06:11:31.131Z,92.4
2024-01-11T06:12:44.442Z,92.8
2024-01-11T06:13:58.738Z,91.2
2024-01-11T06:15:13.033Z,91.2
2024-01-11T06:16:27.328Z,93.4
2024-01-11T06:17:41.602Z,94.2
2024-01-11T06:18:55.919Z,97
2024-01-11T06:20:10.214Z,92
2024-01-11T06:21:24.510Z,92.3
2024-01-11T06:22:38.805Z,92.7
2024-01-11T06:23:53.100Z,87
2024-01-11T06:25:07.396Z,88
2024-01-11T06:26:21.637Z,82.3
2024-01-11T06:27:35.932Z,86.7
2024-01-11T06:28:49.243Z,92.2
2024-01-11T06:30:03.539Z,88.4
2024-01-11T06:31:17.791Z,86.1
2024-01-11T06:32:32.087Z,86.3
2024-01-11T06:33:46.382Z,88.6
2024-01-11T06:35:00.671Z,90.5
2024-01-11T06:36:14.974Z,100.4
2024-01-11T06:37:29.269Z,98.9
2024-01-11T06:38:43.565Z,93.9
2024-01-11T06:39:57.817Z,93.8
2024-01-11T06:41:12.059Z,94.3
2024-01-11T06:42:26.300Z,94.2
2024-01-11T06:43:40.542Z,95.7
2024-01-11T06:44:53.799Z,96.6
2024-01-11T06:46:08.040Z,99.7
2024-01-11T06:47:22.268Z,100.9
2024-01-11T06:48:36.523Z,107
2024-01-11T06:49:50.764Z,104.6
2024-01-11T06:51:05.005Z,106.6
2024-01-11T06:52:19.246Z,108.5
2024-01-11T06:53:33.488Z,109.6
2024-01-11T06:54:47.729Z,103.9
2024-01-11T06:56:01.971Z,106.7
2024-01-11T06:57:16.202Z,107.5
2024-01-11T06:58:30.454Z,100.1
2024-01-11T06:59:44.695Z,101.4
2024-01-11T07:00:57.952Z,99.6
2024-01-11T07:02:12.177Z,98.7
2024-01-11T07:03:26.434Z,99.7
2024-01-11T07:04:40.676Z,103.1
2024-01-11T07:05:54.917Z,100.5
2024-01-11T07:07:09.134Z,101.1
2024-01-11T07:08:22.420Z,102
2024-01-11T07:09:36.635Z,106.5
2024-01-11T07:10:50.903Z,100.7
2024-01-11T07:12:05.144Z,107.3
2024-01-11T07:13:19.385Z,104.7
2024-01-11T07:14:33.626Z,102.5
2024-01-11T07:15:47.868Z,104.8
2024-01-11T07:17:02.102Z,99.3
2024-01-11T07:18:16.350Z,100.7
2024-01-11T07:19:30.591Z,101.2
2024-01-11T07:20:44.832Z,95.3
2024-01-11T07:21:59.073Z,101.9
2024-01-11T07:23:13.314Z,101.6
2024-01-11T07:24:26.571Z,96.2
2024-01-11T07:25:40.812Z,99.5
2024-01-11T07:26:55.054Z,100.5
2024-01-11T07:28:09.295Z,102.7
2024-01-11T07:29:23.536Z,96.4
2024-01-11T07:30:37.777Z,91.9
2024-01-11T07:31:52.018Z,97.3
2024-01-11T07:33:06.259Z,94.5
2024-01-11T07:34:20.500Z,91.7
2024-01-11T07:35:34.741Z,89.6
2024-01-11T07:36:48.982Z,92.5
2024-01-11T07:38:03.223Z,98.7
2024-01-11T07:39:17.453Z,96
2024-01-11T07:40:31.706Z,98
2024-01-11T07:41:44.963Z,101.3
2024-01-11T07:42:59.204Z,101
2024-01-11T07:44:13.445Z,100.3
2024-01-11T07:45:27.686Z,95.6
2024-01-11T07:46:41.909Z,95.4
2024-01-11T07:47:56.168Z,100.7
2024-01-11T07:49:10.409Z,96.6
2024-01-11T07:50:24.650Z,98.8
2024-01-11T07:51:38.891Z,100.7
2024-01-11T07:52:53.132Z,103.9
2024-01-11T07:54:07.373Z,99.8
2024-01-11T07:55:21.614Z,99.1
2024-01-11T07:56:35.855Z,99.1
2024-01-11T07:57:49.112Z,98.3
2024-01-11T07:59:03.354Z,98.5
2024-01-11T08:00:17.595Z,97
2024-01-11T08:01:31.836Z,92.7
2024-01-11T08:02:46.077Z,94.7
2024-01-11T08:04:00.318Z,100.9
2024-01-11T08:05:14.559Z,104
2024-01-11T08:06:28.800Z,101.1
2024-01-11T08:07:43.041Z,98.3
2024-01-11T08:08:57.283Z,101
2024-01-11T08:10:11.524Z,96.2
2024-01-11T08:11:25.765Z,97.9
2024-01-11T08:12:40.006Z,104
2024-01-11T08:13:53.263Z,103.8
2024-01-11T08:15:07.504Z,103.6
2024-01-11T08:16:21.745Z,95.5
2024-01-11T08:17:35.986Z,99.9
2024-01-11T08:18:50.227Z,98.1
2024-01-11T08:20:04.468Z,105.9
2024-01-11T08:21:18.709Z,99.6
2024-01-11T08:22:32.950Z,106.4
2024-01-11T08:23:47.191Z,103.8
2024-01-11T08:25:01.432Z,99.8
2024-01-11T08:26:15.673Z,101.7
2024-01-11T08:27:29.914Z,107.4
2024-01-11T08:28:44.155Z,97.7
2024-01-11T08:29:57.412Z,103.4
2024-01-11T08:31:11.653Z,96.9
2024-01-11T08:32:25.894Z,95.6
2024-01-11T08:33:40.135Z,103.4
2024-01-11T08:34:54.376Z,97.8
2024-01-11T08:36:08.617Z,98.9
2024-01-11T08:37:22.858Z,95.5
2024-01-11T08:38:37.099Z,98.5
2024-01-11T08:39:51.340Z,101.7
2024-01-11T08:41:05.581Z,98.9
2024-01-11T08:42:19.822Z,99
2024-01-11T08:43:34.063Z,103.4
2024-01-11T08:44:48.304Z,101.1
2024-01-11T08:46:01.561Z,103.2
2024-01-11T08:47:15.801Z,104.4
2024-01-11T08:48:30.042Z,102.8
2024-01-11T08:49:44.283Z,103.6
2024-01-11T08:50:58.514Z,106.6
2024-01-11T08:52:12.765Z,107.9
2024-01-11T08:53:27.007Z,95.7
2024-01-11T08:54:41.247Z,102.6
2024-01-11T08:55:55.488Z,97.8
2024-01-11T08:57:09.729Z,100.8
2024-01-11T08:58:23.969Z,101.3
2024-01-11T08:59:38.210Z,98.4
2024-01-11T09:00:52.451Z,106.7
2024-01-11T09:02:05.707Z,98.4
2024-01-11T09:03:19.929Z,103.9
2024-01-11T09:04:34.189Z,94.7
2024-01-11T09:05:48.430Z,100.3
2024-01-11T09:07:02.670Z,101
2024-01-11T09:08:16.911Z,100.2
2024-01-11T09:09:31.151Z,96.1
2024-01-11T09:10:45.392Z,98
2024-01-11T09:11:59.633Z,99.2
2024-01-11T09:13:13.873Z,101.6
2024-01-11T09:14:28.114Z,100.8
2024-01-11T09:15:42.355Z,94.5
2024-01-11T09:16:56.595Z,101.5
2024-01-11T09:18:09.852Z,90.5
2024-01-11T09:19:24.093Z,95.5
2024-01-11T09:20:38.344Z,88.9
2024-01-11T09:21:52.585Z,93.1
2024-01-11T09:23:06.816Z,90.8
2024-01-11T09:24:21.066Z,86.3
2024-01-11T09:25:35.307Z,88.3
2024-01-11T09:26:49.547Z,87.6
2024-01-11T09:28:03.787Z,81.1
2024-01-11T09:29:18.027Z,85.3
2024-01-11T09:30:32.267Z,81.7
2024-01-11T09:31:46.506Z,87.1
2024-01-11T09:33:00.746Z,79.9
2024-01-11T09:34:14.002Z,77.7
2024-01-11T09:35:28.242Z,80.9
2024-01-11T09:36:42.481Z,81.4
2024-01-11T09:37:56.720Z,78.4
2024-01-11T09:39:10.960Z,86.2
2024-01-11T09:40:25.200Z,80.6
2024-01-11T09:41:39.439Z,82.7
2024-01-11T09:42:53.679Z,82.5
2024-01-11T09:44:07.918Z,83.1
2024-01-11T09:45:22.158Z,81.9
2024-01-11T09:46:36.398Z,74.5
2024-01-11T09:47:50.637Z,80.1
2024-01-11T09:49:04.877Z,78.5
2024-01-11T09:50:18.133Z,78.9
2024-01-11T09:51:32.372Z,75.2
2024-01-11T09:52:46.612Z,76.3
2024-01-11T09:54:00.851Z,76.4
2024-01-11T09:55:15.091Z,73.9
2024-01-11T09:56:29.331Z,78.5
2024-01-11T09:57:43.570Z,74.3
2024-01-11T09:58:57.809Z,79.9
2024-01-11T10:00:12.048Z,77.1
2024-01-11T10:01:26.287Z,76.2
2024-01-11T10:02:40.526Z,72.3
2024-01-11T10:03:54.765Z,76.9
2024-01-11T10:05:09.004Z,82
2024-01-11T10:06:22.259Z,75.6
2024-01-11T10:07:36.498Z,73.5
2024-01-11T10:08:50.737Z,78.4
2024-01-11T10:10:04.976Z,74.9
2024-01-11T10:11:19.215Z,75.2
2024-01-11T10:12:33.454Z,78.6
2024-01-11T10:13:47.693Z,76.2
2024-01-11T10:15:01.932Z,73.7
2024-01-11T10:16:16.171Z,76.2
2024-01-11T10:17:30.411Z,79
2024-01-11T10:18:44.650Z,74.1
2024-01-11T10:19:58.889Z,74.1
2024-01-11T10:21:13.128Z,76.3
2024-01-11T10:22:26.383Z,75.6
2024-01-11T10:23:40.622Z,71.2
2024-01-11T10:24:54.861Z,78.4
2024-01-11T10:26:09.100Z,74.7
2024-01-11T10:27:23.339Z,77.3
2024-01-11T10:28:37.579Z,85
2024-01-11T10:29:51.804Z,79.1
2024-01-11T10:31:06.057Z,79.8
2024-01-11T10:32:20.296Z,83.3
2024-01-11T10:33:34.536Z,87.1
2024-01-11T10:34:48.776Z,79.3
2024-01-11T10:36:03.015Z,80.7
2024-01-11T10:37:17.255Z,83.4
2024-01-11T10:38:30.511Z,84.1
2024-01-11T10:39:44.751Z,82.9
2024-01-11T10:40:58.990Z,82.5
2024-01-11T10:42:13.230Z,83.3
2024-01-11T10:43:27.469Z,82.9
2024-01-11T10:44:41.710Z,87.4
2024-01-11T10:45:55.949Z,84.7
2024-01-11T10:47:10.189Z,83
2024-01-11T10:48:24.428Z,87.5
2024-01-11T10:49:38.668Z,89.9
2024-01-11T10:50:52.908Z,91.4
2024-01-11T10:52:07.148Z,86.4
2024-01-11T10:53:21.387Z,86.7
2024-01-11T10:54:34.643Z,84
2024-01-11T10:55:48.883Z,88.5
2024-01-11T10:57:03.123Z,87.8
2024-01-11T10:58:17.363Z,85.3
2024-01-11T10:59:31.604Z,84
2024-01-11T11:00:45.844Z,94.2
2024-01-11T11:02:00.084Z,84.7
2024-01-11T11:03:14.325Z,92
2024-01-11T11:04:28.565Z,89.1
2024-01-11T11:05:42.805Z,86.2
2024-01-11T11:06:57.045Z,84.9
2024-01-11T11:08:11.286Z,84.6
2024-01-11T11:09:25.504Z,84.3
2024-01-11T11:10:38.782Z,80.6
2024-01-11T11:11:53.023Z,87.9
2024-01-11T11:13:07.263Z,86.5
2024-01-11T11:14:21.503Z,86.1
2024-01-11T11:15:35.744Z,82.7
2024-01-11T11:16:48.977Z,82.8
2024-01-11T11:18:03.245Z,84.9
2024-01-11T11:19:17.486Z,77.3
2024-01-11T11:20:31.726Z,86.2
2024-01-11T11:21:45.966Z,84.7
2024-01-11T11:23:00.207Z,81.8
2024-01-11T11:24:14.447Z,82.9
2024-01-11T11:25:28.688Z,85
2024-01-11T11:26:42.928Z,82.8
2024-01-11T11:27:57.168Z,81.5
2024-01-11T11:29:11.408Z,85
2024-01-11T11:30:25.648Z,85.8
2024-01-11T11:31:39.888Z,80.9
2024-01-11T11:32:53.145Z,82.4
2024-01-11T11:34:07.385Z,85.6
2024-01-11T11:35:21.625Z,80.3
2024-01-11T11:36:35.838Z,82.3
2024-01-11T11:37:50.106Z,81.9
2024-01-11T11:39:04.346Z,86
2024-01-11T11:40:18.585Z,84.2
2024-01-11T11:41:32.826Z,82
2024-01-11T11:42:47.066Z,81
2024-01-11T11:44:01.306Z,83
2024-01-11T11:45:15.546Z,79.3
2024-01-11T11:46:29.787Z,75.6
2024-01-11T11:47:44.027Z,81.5
2024-01-11T11:48:57.283Z,81.6
2024-01-11T11:50:11.523Z,83.5
2024-01-11T11:51:25.764Z,82.2
2024-01-11T11:52:40.004Z,82.4
2024-01-11T11:53:54.244Z,84.9
2024-01-11T11:55:08.484Z,85.4
2024-01-11T11:56:22.724Z,76.8
2024-01-11T11:57:36.963Z,72.6
2024-01-11T11:58:51.183Z,76.1
2024-01-11T12:00:05.442Z,73.2
2024-01-11T12:01:19.682Z,79.8
2024-01-11T12:02:33.922Z,75.1
2024-01-11T12:03:48.162Z,74.6
2024-01-11T12:05:01.418Z,79.6
2024-01-11T12:06:15.658Z,77.4
2024-01-11T12:07:29.898Z,73.5
2024-01-11T12:08:44.138Z,76.4
2024-01-11T12:09:58.378Z,73.8
2024-01-11T12:11:12.619Z,72
2024-01-11T12:12:26.859Z,77.3
2024-01-11T12:13:41.099Z,74.9
2024-01-11T12:14:55.339Z,73.6
2024-01-11T12:16:09.580Z,69.6
2024-01-11T12:17:23.820Z,75.1
2024-01-11T12:18:38.060Z,70
2024-01-11T12:19:52.299Z,69.7
2024-01-11T12:21:05.555Z,71.7
2024-01-11T12:22:19.795Z,74.5
2024-01-11T12:23:34.035Z,67.9
2024-01-11T12:24:48.275Z,67.9
2024-01-11T12:26:02.514Z,70.7
2024-01-11T12:27:16.754Z,70
2024-01-11T12:28:30.994Z,73.7
2024-01-11T12:29:45.233Z,69.8
2024-01-11T12:30:59.473Z,63.9
2024-01-11T12:32:13.704Z,65.1
2024-01-11T12:33:27.953Z,68.5
2024-01-11T12:34:42.193Z,66.9
2024-01-11T12:35:56.433Z,67
2024-01-11T12:37:09.688Z,63.8
2024-01-11T12:38:23.928Z,63.6
2024-01-11T12:39:38.168Z,61.3
2024-01-11T12:40:52.408Z,66.3
2024-01-11T12:42:06.647Z,64.5
2024-01-11T12:43:20.887Z,62.7
2024-01-11T12:44:35.127Z,62.5
2024-01-11T12:45:49.366Z,64.3
2024-01-11T12:47:03.606Z,66.6
2024-01-11T12:48:17.846Z,66.2
2024-01-11T12:49:32.086Z,66.5
2024-01-11T12:50:46.325Z,64.5
2024-01-11T12:52:00.565Z,63.8
2024-01-11T12:53:13.820Z,68.2
2024-01-11T12:54:28.060Z,62.4
2024-01-11T12:55:42.300Z,63.8
2024-01-11T12:56:56.539Z,60.8
2024-01-11T12:58:10.779Z,61.8
2024-01-11T12:59:25.019Z,60.2
2024-01-11T13:00:39.259Z,59.8
2024-01-11T13:01:53.498Z,64.3
2024-01-11T13:03:07.731Z,59.7
2024-01-11T13:04:21.977Z,60
2024-01-11T13:05:36.217Z,59.7
2024-01-11T13:06:50.457Z,60
2024-01-11T13:08:04.687Z,62.9
2024-01-11T13:09:17.953Z,65.3
2024-01-11T13:10:32.178Z,57.5
2024-01-11T13:11:46.433Z,66.6
2024-01-11T13:13:00.673Z,63
2024-01-11T13:14:14.913Z,63.8
2024-01-11T13:15:29.153Z,63.3
2024-01-11T13:16:43.393Z,63.7
2024-01-11T13:17:57.633Z,66.8
2024-01-11T13:19:11.848Z,65
2024-01-11T13:20:26.115Z,62.2
2024-01-11T13:21:40.355Z,62
2024-01-11T13:22:54.583Z,67.8
2024-01-11T13:24:08.835Z,65.2
2024-01-11T13:25:22.091Z,62.5
2024-01-11T13:26:36.331Z,62.6
2024-01-11T13:27:50.572Z,63.4
2024-01-11T13:29:04.812Z,64.4
2024-01-11T13:30:19.052Z,62.6
2024-01-11T13:31:33.292Z,68.5
2024-01-11T13:32:47.533Z,61.8
2024-01-11T13:34:01.773Z,64.9
2024-01-11T13:35:16.013Z,63.2
2024-01-11T13:36:30.253Z,64.6
2024-01-11T13:37:44.472Z,62.1
2024-01-11T13:38:58.734Z,71.2
2024-01-11T13:40:12.974Z,66.5
2024-01-11T13:41:26.230Z,65.4
2024-01-11T13:42:40.470Z,69.8
2024-01-11T13:43:54.710Z,65.6
2024-01-11T13:45:08.950Z,66.1
2024-01-11T13:46:23.190Z,65.3
2024-01-11T13:47:37.430Z,68.1
2024-01-11T13:48:51.669Z,65.3
2024-01-11T13:50:05.909Z,63.5
2024-01-11T13:51:20.149Z,65.7
2024-01-11T13:52:34.366Z,68.1
2024-01-11T13:53:48.630Z,67.6
2024-01-11T13:55:02.870Z,67.3
2024-01-11T13:56:17.110Z,68.7
2024-01-11T13:57:30.367Z,66.9
2024-01-11T13:58:44.583Z,68.8
2024-01-11T13:59:58.847Z,68.9
2024-01-11T14:01:13.087Z,67.4
2024-01-11T14:02:27.328Z,69.1
2024-01-11T14:03:41.568Z,68.7
2024-01-11T14:04:55.808Z,72.5
2024-01-11T14:06:10.048Z,69.9
2024-01-11T14:08:38.529Z,66.1
2024-01-11T14:09:52.769Z,67.9
2024-01-11T14:11:07.009Z,69.3
2024-01-11T14:12:21.249Z,69.6
2024-01-11T14:13:35.490Z,68.6
2024-01-11T14:14:48.746Z,62.2
2024-01-11T14:16:02.986Z,68.8
2024-01-11T14:17:17.227Z,66.5
2024-01-11T14:18:31.467Z,70.6
2024-01-11T14:19:45.707Z,68.6
2024-01-11T14:20:59.947Z,65.1
2024-01-11T14:22:14.169Z,66
2024-01-11T14:23:28.428Z,65.8
2024-01-11T14:24:42.668Z,66.5
2024-01-11T14:25:56.909Z,67.9
2024-01-11T14:27:11.149Z,68.7
2024-01-11T14:28:25.389Z,67
2024-01-11T14:29:39.629Z,70.1
2024-01-11T14:30:52.886Z,68.3
2024-01-11T14:32:07.106Z,72.3
2024-01-11T14:33:21.366Z,70.5
2024-01-11T14:34:35.581Z,69.3
2024-01-11T14:35:49.847Z,72.9
2024-01-11T14:37:04.063Z,67.3
2024-01-11T14:38:18.328Z,67.9
2024-01-11T14:39:32.568Z,70.3
2024-01-11T14:40:46.808Z,65.7
2024-01-11T14:42:01.048Z,66.6
2024-01-11T14:43:15.290Z,65.4
2024-01-11T14:44:29.530Z,68.3
2024-01-11T14:45:43.770Z,61.8
2024-01-11T14:46:57.027Z,62.4
2024-01-11T14:48:11.267Z,66.6
2024-01-11T14:49:25.499Z,57.7
2024-01-11T14:50:39.747Z,53.6
2024-01-11T14:51:53.961Z,44.9
2024-01-11T14:53:08.228Z,42.5
2024-01-11T14:54:22.459Z,46.2
2024-01-11T14:55:36.710Z,42.5
2024-01-11T14:56:50.942Z,44.2
2024-01-11T14:58:05.190Z,43.4
2024-01-11T14:59:19.431Z,42.3
2024-01-11T15:00:33.671Z,42.6
2024-01-11T15:01:47.911Z,42.8
2024-01-11T15:03:01.167Z,40.9
2024-01-11T15:04:15.394Z,43.9
2024-01-11T15:05:29.648Z,42.1
2024-01-11T15:06:43.873Z,42.4
2024-01-11T15:07:58.129Z,40.9
2024-01-11T15:09:12.369Z,43.6
2024-01-11T15:10:26.609Z,44.8
2024-01-11T15:11:40.828Z,44.4
2024-01-11T15:12:55.090Z,40.5
2024-01-11T15:14:09.330Z,35.8
2024-01-11T15:15:23.570Z,39.1
2024-01-11T15:16:37.811Z,34.9
2024-01-11T15:17:52.051Z,36.5
2024-01-11T15:20:19.548Z,33.9
2024-01-11T15:21:33.775Z,35.8
2024-01-11T15:22:48.028Z,34.7
2024-01-11T15:24:02.269Z,37.2
2024-01-11T15:25:15.530Z,35
2024-01-11T15:26:29.753Z,36.9
2024-01-11T15:27:44.011Z,35.8
2024-01-11T15:28:58.251Z,36.6
2024-01-11T15:30:12.492Z,34.9
2024-01-11T15:31:26.732Z,35.1
2024-01-11T15:32:40.972Z,32.2
2024-01-11T15:33:55.213Z,36.3
2024-01-11T15:35:09.453Z,38.1
2024-01-11T15:36:23.666Z,38.3
2024-01-11T15:37:37.934Z,35
2024-01-11T15:38:52.174Z,36.1
2024-01-11T15:40:06.415Z,35.6
2024-01-11T15:41:19.660Z,38.6
2024-01-11T15:42:33.911Z,33
2024-01-11T15:43:48.152Z,32.4
2024-01-11T15:45:02.392Z,36.6
2024-01-11T15:46:16.000Z,34.6
2024-01-11T15:47:30.874Z,35.9
2024-01-11T15:48:45.098Z,34.1
2024-01-11T15:49:59.354Z,33.3
2024-01-11T15:51:13.585Z,38.4
2024-01-11T15:52:27.890Z,37.9
2024-01-11T15:53:42.130Z,36.2
2024-01-11T15:54:56.371Z,34.4
2024-01-11T15:56:10.657Z,37.6
2024-01-11T15:57:23.976Z,37.1
2024-01-11T15:58:38.209Z,36.5
2024-01-11T15:59:52.468Z,35.8
2024-01-11T16:01:06.741Z,36.5
2024-01-11T16:02:21.057Z,36.9
2024-01-11T16:03:35.351Z,36.6
2024-01-11T16:04:49.646Z,36.9
2024-01-11T16:06:03.913Z,39.3
2024-01-11T16:07:18.234Z,36.4
2024-01-11T16:08:32.529Z,40.7
2024-01-11T16:09:46.823Z,37.7
2024-01-11T16:11:01.108Z,38.4
2024-01-11T16:12:15.412Z,34.9
2024-01-11T16:13:28.699Z,38.8
2024-01-11T16:14:43.017Z,38.4
2024-01-11T16:15:57.311Z,36.3
2024-01-11T16:17:11.605Z,39.3
2024-01-11T16:18:25.900Z,33.6
2024-01-11T16:19:40.194Z,37.7
2024-01-11T16:20:54.473Z,35.2
2024-01-11T16:22:08.783Z,36.4
2024-01-11T16:23:23.077Z,37.8
2024-01-11T16:24:37.372Z,40.1
2024-01-11T16:25:51.655Z,34.2
2024-01-11T16:27:05.960Z,36.7
2024-01-11T16:28:20.255Z,35.8
2024-01-11T16:29:33.565Z,34.1
2024-01-11T16:30:47.859Z,33.3
2024-01-11T16:32:02.154Z,35.5
2024-01-11T16:33:16.448Z,32.6
2024-01-11T16:34:30.743Z,32.1